Time;durP1;ratioP1;P1;durP2;ratioP2;P2;SDS_P1;SDS_P2;PMS_P1;PMS_P2;Temp;Humidity;BMP_temperature;BMP_pressure;BME280_temperature;BME280_humidity;BME280_pressure;Samples;Min_cycle;Max_cycle;Signal;HPM_P1;HPM_P2
2023/03/21 00:00:18;;;;;;;18.77;8.88;;;;;;;-7.43;60.26;97454.97;6318365;28;20081;-68
2023/03/21 00:03:22;;;;;;;;;;;;;;;-7.40;60.36;97454.16;6320182;28;20059;-66
2023/03/21 00:06:27;;;;;;;14.88;7.25;;;;;;;-7.43;60.15;97449.84;6318370;28;20419;-66
2023/03/21 00:09:32;;;;;;;12.88;7.53;;;;;;;-7.44;60.12;97453.25;6319738;28;20043;-67
2023/03/21 00:12:37;;;;;;;16.75;8.13;;;;;;;-7.42;60.46;97445.59;6318192;28;20100;-67
2023/03/21 00:15:49;;;;;;;14.65;7.60;;;;;;;-7.40;59.90;97449.88;6318243;28;20181;-67
2023/03/21 00:18:56;;;;;;;24.73;11.52;;;;;;;-7.36;60.06;97446.56;6319663;28;20048;-68
2023/03/21 00:22:01;;;;;;;8.38;4.45;;;;;;;-7.25;60.07;97441.56;6319402;28;20051;-67
2023/03/21 00:25:05;;;;;;;7.95;4.60;;;;;;;-6.71;58.00;97443.13;6319681;28;20084;-68
2023/03/21 00:28:09;;;;;;;;;;;;;;;-6.71;58.50;97447.38;6319822;28;20036;-67
2023/03/21 00:31:13;;;;;;;21.63;7.65;;;;;;;-6.82;58.01;97444.69;6319285;28;19923;-68
2023/03/21 00:34:17;;;;;;;;;;;;;;;-6.78;58.20;97447.31;6319882;28;20036;-67
2023/03/21 00:37:21;;;;;;;22.00;8.82;;;;;;;-6.80;57.91;97443.88;6319326;28;20053;-67
2023/03/21 00:40:26;;;;;;;20.92;9.77;;;;;;;-6.86;57.74;97443.81;6319266;28;20052;-67
2023/03/21 00:43:31;;;;;;;25.83;10.93;;;;;;;-6.92;58.50;97443.72;6319259;28;20042;-67
2023/03/21 00:46:35;;;;;;;18.77;8.43;;;;;;;-6.93;58.74;97444.59;6319280;28;20089;-67
2023/03/21 00:49:39;;;;;;;;;;;;;;;-6.96;59.05;97438.53;6319593;28;20032;-67
2023/03/21 00:52:44;;;;;;;19.30;7.85;;;;;;;-6.99;58.69;97434.28;6319064;28;20384;-66
2023/03/21 00:55:48;;;;;;;7.30;3.88;;;;;;;-6.93;58.45;97431.78;6318800;28;20063;-67
2023/03/21 00:58:52;;;;;;;;;;;;;;;-6.81;58.38;97436.19;6319335;28;20108;-66
2023/03/21 01:01:59;;;;;;;9.82;4.20;;;;;;;-6.70;57.78;97428.66;6319084;28;20463;-68
2023/03/21 01:05:05;;;;;;;10.10;3.58;;;;;;;-6.56;57.29;97416.88;6317496;28;20093;-67
2023/03/21 01:08:11;;;;;;;8.45;3.78;;;;;;;-6.41;56.35;97427.25;6319005;28;20050;-67
2023/03/21 01:11:19;;;;;;;8.45;4.30;;;;;;;-6.40;56.21;97428.13;6318975;28;20086;-66
2023/03/21 01:14:23;;;;;;;8.80;5.18;;;;;;;-6.28;55.98;97422.25;6318677;28;20051;-68
2023/03/21 01:17:26;;;;;;;;;;;;;;;-6.13;55.34;97417.31;6319260;28;20105;-66
2023/03/21 01:20:31;;;;;;;12.10;5.15;;;;;;;-6.10;55.57;97418.19;6318698;28;20015;-67
2023/03/21 01:23:35;;;;;;;12.27;6.07;;;;;;;-6.16;55.57;97409.59;6318720;28;20455;-66
2023/03/21 01:26:39;;;;;;;;;;;;;;;-6.17;55.23;97415.53;6323909;28;20047;-68
2023/03/21 01:29:43;;;;;;;14.43;6.80;;;;;;;-6.21;55.52;97406.97;6323599;28;20061;-67
2023/03/21 01:32:49;;;;;;;12.73;6.05;;;;;;;-6.16;55.15;97407.03;6323429;28;20093;-66
2023/03/21 01:35:54;;;;;;;14.45;4.93;;;;;;;-6.04;55.44;97402.00;6323370;28;20043;-67
2023/03/21 01:38:59;;;;;;;9.73;4.57;;;;;;;-5.90;54.70;97395.25;6323323;28;20073;-67
2023/03/21 01:42:03;;;;;;;14.95;7.55;;;;;;;-5.81;54.83;97393.63;6323148;28;20044;-68
2023/03/21 01:45:45;;;;;;;15.80;5.78;;;;;;;-5.75;55.28;97394.50;6323101;28;20073;-67
2023/03/21 01:48:57;;;;;;;16.88;6.45;;;;;;;-5.76;55.34;97397.94;6322745;28;20046;-68
2023/03/21 01:52:08;;;;;;;10.07;4.97;;;;;;;-5.78;55.11;97398.75;6323044;28;20085;-67
2023/03/21 01:55:14;;;;;;;16.42;6.43;;;;;;;-5.84;55.14;97398.72;6322686;28;20059;-67
2023/03/21 01:58:19;;;;;;;16.40;6.63;;;;;;;-5.90;55.03;97405.50;6322878;28;20135;-68
2023/03/21 02:01:22;;;;;;;;;;;;;;;-5.89;55.60;97402.13;6321933;28;20048;-67
2023/03/21 02:04:27;;;;;;;23.65;7.90;;;;;;;-5.90;55.45;97395.25;6322603;28;19961;-67
2023/03/21 02:07:34;;;;;;;;;;;;;;;-5.88;55.63;97401.25;6322875;28;20505;-67
2023/03/21 02:10:39;;;;;;;10.52;5.00;;;;;;;-5.67;55.41;97397.13;6322541;28;19986;-67
2023/03/21 02:13:44;;;;;;;18.38;7.30;;;;;;;-5.45;54.78;97399.00;6322302;28;20051;-67
2023/03/21 02:17:28;;;;;;;15.45;6.88;;;;;;;-5.37;54.18;97393.94;6322295;28;20638;-67
2023/03/21 02:21:10;;;;;;;23.67;8.75;;;;;;;-5.26;54.25;97394.00;6308354;28;20055;-67
2023/03/21 02:24:25;;;;;;;15.98;6.82;;;;;;;-5.18;53.92;97400.00;6281595;28;20067;-67
2023/03/21 02:27:36;;;;;;;26.60;8.15;;;;;;;-5.22;54.39;97400.84;6322019;28;20048;-68
2023/03/21 02:30:42;;;;;;;24.25;8.95;;;;;;;-5.29;54.07;97406.81;6321939;28;20073;-68
2023/03/21 02:34:21;;;;;;;22.77;9.27;;;;;;;-5.36;54.38;97393.06;6322280;28;20054;-67
2023/03/21 02:37:41;;;;;;;28.42;9.18;;;;;;;-5.36;54.46;97397.34;6277995;28;20131;-67
2023/03/21 02:40:56;;;;;;;18.60;6.18;;;;;;;-5.35;54.54;97404.19;6321876;28;20413;-68
2023/03/21 02:44:15;;;;;;;21.63;6.07;;;;;;;-5.34;54.44;97395.66;6321352;28;20458;-67
2023/03/21 02:47:23;;;;;;;22.90;7.28;;;;;;;-5.32;54.48;97401.63;6321609;28;20044;-67
2023/03/21 02:50:45;;;;;;;17.08;5.68;;;;;;;-5.26;54.25;97404.25;6321370;28;20048;-67
2023/03/21 02:53:59;;;;;;;17.00;5.47;;;;;;;-5.26;54.01;97409.41;6321945;28;20378;-67
2023/03/21 02:57:03;;;;;;;;;;;;;;;-5.23;54.37;97409.41;6321416;28;20040;-66
2023/03/21 03:00:11;;;;;;;24.02;6.50;;;;;;;-5.21;54.35;97402.56;6321066;28;20114;-67
2023/03/21 03:03:15;;;;;;;12.50;4.55;;;;;;;-5.09;53.93;97412.06;6321022;28;20510;-66
2023/03/21 03:06:40;;;;;;;9.02;4.72;;;;;;;-4.82;53.42;97408.75;6320961;28;20036;-67
2023/03/21 03:09:59;;;;;;;9.48;4.65;;;;;;;-4.58;53.32;97415.69;6321281;28;20086;-67
2023/03/21 03:13:34;;;;;;;14.05;4.70;;;;;;;-4.40;53.11;97414.88;6321204;28;20043;-66
2023/03/21 03:16:50;;;;;;;28.25;8.45;;;;;;;-4.34;52.94;97420.03;6317858;28;20131;-67
2023/03/21 03:20:12;;;;;;;15.15;5.00;;;;;;;-4.20;52.51;97423.50;6320944;28;20408;-68
2023/03/21 03:23:42;;;;;;;16.73;5.28;;;;;;;-3.99;52.72;97416.66;6320839;28;20090;-67
2023/03/21 03:27:28;;;;;;;10.30;5.00;;;;;;;-3.57;51.81;97417.53;6320235;28;20044;-67
2023/03/21 03:30:35;;;;;;;14.32;4.72;;;;;;;-3.51;51.79;97421.00;6218510;28;20443;-68
2023/03/21 03:33:45;;;;;;;9.70;4.32;;;;;;;-3.26;51.17;97421.78;6220833;28;20041;-66
2023/03/21 03:36:56;;;;;;;13.07;4.50;;;;;;;-3.10;51.29;97429.50;6319229;28;20043;-68
2023/03/21 03:40:17;;;;;;;10.52;4.38;;;;;;;-2.92;50.96;97426.88;6319105;28;20043;-67
2023/03/21 03:43:29;;;;;;;9.07;3.50;;;;;;;-2.80;51.10;97424.28;6320304;28;20070;-67
2023/03/21 03:46:53;;;;;;;10.77;3.58;;;;;;;-2.62;50.35;97420.78;6319823;28;20044;-66
2023/03/21 03:50:12;;;;;;;13.88;3.72;;;;;;;-2.48;50.83;97418.13;6306760;28;20055;-66
2023/03/21 03:53:40;;;;;;;16.42;6.57;;;;;;;-2.29;50.29;97419.75;6320066;28;20503;-68
2023/03/21 03:56:45;;;;;;;15.50;5.57;;;;;;;-2.25;50.04;97425.75;6319510;28;20078;-67
2023/03/21 03:59:51;;;;;;;13.35;4.03;;;;;;;-2.07;49.67;97429.94;6319812;28;20096;-68
2023/03/21 04:02:57;;;;;;;7.38;3.50;;;;;;;-1.94;49.69;97421.25;6319708;28;20547;-67
2023/03/21 04:06:02;;;;;;;10.35;3.67;;;;;;;-1.77;49.44;97423.72;6319718;28;20525;-68
2023/03/21 04:09:07;;;;;;;8.50;3.50;;;;;;;-1.53;48.80;97417.50;6319669;28;20054;-66
2023/03/21 04:12:12;;;;;;;7.25;2.95;;;;;;;-1.28;48.68;97422.47;6319907;28;20196;-68
2023/03/21 04:15:18;;;;;;;7.65;2.33;;;;;;;-0.94;47.63;97423.84;6320026;28;20058;-67
2023/03/21 04:18:22;;;;;;;6.45;2.75;;;;;;;-0.49;47.03;97426.75;6319967;28;20070;-67
2023/03/21 04:21:27;;;;;;;5.40;2.50;;;;;;;-0.19;46.00;97424.69;6319351;28;20377;-66
2023/03/21 04:24:32;;;;;;;5.97;2.00;;;;;;;0.08;45.87;97422.56;6319381;28;20047;-66
2023/03/21 04:27:37;;;;;;;6.90;2.20;;;;;;;0.22;44.48;97421.47;6319213;28;20428;-67
2023/03/21 04:30:42;;;;;;;5.22;2.08;;;;;;;0.22;44.53;97420.63;6319316;28;20042;-67
2023/03/21 04:33:48;;;;;;;7.63;2.15;;;;;;;0.32;44.93;97413.59;6319289;28;20044;-67
2023/03/21 04:36:54;;;;;;;3.95;1.83;;;;;;;0.37;44.53;97420.41;6319125;28;20048;-68
2023/03/21 04:39:59;;;;;;;5.50;2.72;;;;;;;0.50;44.79;97407.25;6319235;28;20062;-68
2023/03/21 04:43:04;;;;;;;3.85;2.10;;;;;;;0.70;43.90;97407.78;6319204;28;20044;-67
2023/03/21 04:46:09;;;;;;;5.28;1.98;;;;;;;1.03;43.26;97411.50;6319302;28;20059;-69
2023/03/21 04:49:14;;;;;;;2.53;2.00;;;;;;;1.17;43.17;97424.22;6319091;28;20055;-67
2023/03/21 04:52:19;;;;;;;3.15;1.60;;;;;;;1.47;43.26;97416.72;6319008;28;20565;-67
2023/03/21 04:55:25;;;;;;;5.22;2.20;;;;;;;1.90;42.23;97416.69;6319175;28;20097;-68
2023/03/21 04:58:26;;;;;;;3.17;2.05;;;;;;;2.13;41.62;97408.41;6318967;28;20530;-67
2023/03/21 05:01:30;;;;;;;5.65;2.30;;;;;;;2.24;41.34;97416.78;6325333;28;20497;-67
2023/03/21 05:04:31;;;;;;;7.90;2.63;;;;;;;2.38;41.07;97413.03;6324706;28;20038;-68
2023/03/21 05:07:36;;;;;;;5.60;2.58;;;;;;;2.48;41.21;97411.91;6324117;28;20051;-67
2023/03/21 05:10:40;;;;;;;2.55;1.92;;;;;;;2.74;40.68;97415.59;6323906;28;20561;-68
2023/03/21 05:13:42;;;;;;;4.65;1.90;;;;;;;2.91;39.81;97410.81;6323345;28;20425;-67
2023/03/21 05:16:51;;;;;;;3.50;1.90;;;;;;;3.09;39.61;97404.31;6323674;28;20181;-67
2023/03/21 05:19:55;;;;;;;4.45;1.88;;;;;;;3.29;39.00;97403.78;6323528;28;20040;-67
2023/03/21 05:22:56;;;;;;;4.80;2.25;;;;;;;3.57;38.31;97402.09;6323767;28;20036;-67
2023/03/21 05:26:00;;;;;;;4.18;1.90;;;;;;;3.90;37.78;97402.00;6323509;28;20036;-67
2023/03/21 05:29:01;;;;;;;3.63;2.30;;;;;;;4.22;36.84;97398.44;6323471;28;20040;-67
2023/03/21 05:32:03;;;;;;;4.70;2.20;;;;;;;4.34;36.77;97384.16;6322888;28;20044;-67
2023/03/21 05:35:05;;;;;;;4.63;2.40;;;;;;;4.58;36.74;97389.47;6323494;28;20043;-67
2023/03/21 05:38:09;;;;;;;4.00;2.15;;;;;;;5.10;35.42;97388.59;6323602;28;20397;-68
2023/03/21 05:41:12;;;;;;;5.43;2.25;;;;;;;5.09;35.47;97386.88;6322981;28;20056;-67
2023/03/21 05:44:16;;;;;;;7.07;2.63;;;;;;;5.49;34.92;97384.59;6323218;28;20559;-67
2023/03/21 05:47:18;;;;;;;3.58;1.95;;;;;;;8.59;31.46;97377.56;6322760;28;20541;-68
2023/03/21 05:50:24;;;;;;;4.97;2.03;;;;;;;13.47;25.70;97371.00;6323363;28;20036;-67
2023/03/21 05:53:28;;;;;;;4.03;2.10;;;;;;;15.83;22.74;97367.94;6322453;28;20501;-66
2023/03/21 05:56:33;;;;;;;4.63;2.33;;;;;;;17.41;21.43;97369.22;6322747;28;20048;-67
2023/03/21 05:59:35;;;;;;;7.40;2.00;;;;;;;19.32;19.74;97371.94;6322431;28;20052;-67
2023/03/21 06:02:41;;;;;;;9.68;3.50;;;;;;;21.63;18.38;97369.22;6323340;28;20040;-68
2023/03/21 06:05:45;;;;;;;7.55;3.10;;;;;;;22.57;17.11;97358.47;6322461;28;20060;-68
2023/03/21 06:08:47;;;;;;;4.20;2.28;;;;;;;22.54;17.50;97357.97;6321784;28;20545;-67
2023/03/21 06:11:54;;;;;;;6.45;2.60;;;;;;;22.90;16.76;97358.56;6322084;28;20036;-67
2023/03/21 06:15:00;;;;;;;7.13;2.78;;;;;;;23.66;16.41;97360.09;6322338;28;20051;-68
2023/03/21 06:18:07;;;;;;;4.65;2.05;;;;;;;23.53;15.75;97347.22;6322170;28;20047;-68
2023/03/21 06:21:13;;;;;;;4.80;1.98;;;;;;;21.24;16.43;97338.25;6322061;28;20044;-67
2023/03/21 06:24:18;;;;;;;3.65;1.90;;;;;;;18.44;18.38;97346.16;6322176;28;20040;-69
2023/03/21 06:27:20;;;;;;;7.32;2.05;;;;;;;16.04;20.90;97339.69;6321504;28;20484;-68
2023/03/21 06:30:21;;;;;;;5.78;2.58;;;;;;;14.53;22.45;97331.75;6320810;28;20036;-68
2023/03/21 06:33:26;;;;;;;5.28;2.15;;;;;;;13.35;24.05;97334.81;6321812;28;20409;-67
2023/03/21 06:36:28;;;;;;;5.43;2.13;;;;;;;12.97;24.45;97327.69;6321533;28;20062;-67
2023/03/21 06:39:32;;;;;;;6.30;2.10;;;;;;;14.15;24.06;97326.56;6320929;28;20036;-68
2023/03/21 06:42:37;;;;;;;3.22;1.65;;;;;;;16.58;21.21;97340.66;6320992;28;20051;-68
2023/03/21 06:45:42;;;;;;;5.55;1.48;;;;;;;16.19;21.36;97331.47;6322037;28;20040;-68
2023/03/21 06:48:48;;;;;;;2.20;1.25;;;;;;;14.50;23.08;97331.13;6320617;28;20052;-70
2023/03/21 06:51:50;;;;;;;2.88;1.33;;;;;;;13.54;24.56;97326.47;6320884;28;20138;-68
2023/03/21 06:54:55;;;;;;;3.72;1.50;;;;;;;14.75;23.55;97332.84;6321014;28;20453;-69
2023/03/21 06:57:59;;;;;;;3.85;1.23;;;;;;;16.29;21.64;97338.56;6321514;28;20565;-67
2023/03/21 07:01:04;;;;;;;6.38;3.20;;;;;;;17.25;20.87;97339.56;6321328;28;20153;-68
2023/03/21 07:04:08;;;;;;;5.80;2.83;;;;;;;18.59;19.76;97336.78;6320875;28;20052;-68
2023/03/21 07:07:09;;;;;;;3.35;1.80;;;;;;;19.38;18.82;97336.66;6320399;28;20571;-68
2023/03/21 07:10:11;;;;;;;7.35;2.72;;;;;;;19.13;18.94;97332.75;6320599;28;20044;-67
2023/03/21 07:13:15;;;;;;;12.18;2.38;;;;;;;20.04;18.92;97333.16;6320579;28;20137;-67
2023/03/21 07:16:23;;;;;;;4.07;2.08;;;;;;;21.08;17.77;97338.94;6321102;28;20035;-68
2023/03/21 07:19:25;;;;;;;5.25;2.15;;;;;;;20.07;18.31;97332.84;6320919;28;20039;-68
2023/03/21 07:22:27;;;;;;;4.95;2.15;;;;;;;20.12;18.39;97325.19;6319707;28;20052;-68
2023/03/21 07:25:33;;;;;;;4.10;1.80;;;;;;;20.79;17.55;97327.66;6320789;28;20035;-68
2023/03/21 07:28:37;;;;;;;4.07;1.60;;;;;;;21.45;17.26;97327.22;6320716;28;20150;-67
2023/03/21 07:31:41;;;;;;;2.92;2.20;;;;;;;21.50;17.10;97332.13;6320540;28;20047;-68
2023/03/21 07:34:47;;;;;;;3.40;1.77;;;;;;;21.38;17.47;97326.19;6320600;28;20452;-68
2023/03/21 07:37:57;;;;;;;5.25;2.00;;;;;;;20.76;17.90;97333.31;6320636;28;20498;-69
2023/03/21 07:41:01;;;;;;;3.25;1.85;;;;;;;20.69;18.02;97326.88;6320385;28;20611;-68
2023/03/21 07:44:06;;;;;;;3.03;1.83;;;;;;;20.08;18.14;97318.50;6320167;28;20142;-68
2023/03/21 07:47:11;;;;;;;4.47;2.78;;;;;;;19.84;18.41;97308.31;6318788;28;20055;-67
2023/03/21 07:50:16;;;;;;;4.25;2.67;;;;;;;17.90;20.00;97305.63;6319667;28;20040;-68
2023/03/21 07:53:18;;;;;;;4.95;2.22;;;;;;;16.03;21.69;97306.16;6319848;28;20085;-68
2023/03/21 07:56:20;;;;;;;5.20;2.53;;;;;;;14.22;23.57;97304.00;6320205;28;20052;-68
2023/03/21 07:59:25;;;;;;;3.85;2.00;;;;;;;13.32;24.47;97302.47;6320331;28;20831;-68
2023/03/21 08:02:26;;;;;;;3.67;1.98;;;;;;;13.21;24.47;97301.38;6319326;28;20051;-68
2023/03/21 08:05:39;;;;;;;3.95;2.15;;;;;;;12.16;25.90;97290.78;6318596;28;20044;-68
2023/03/21 08:08:40;;;;;;;5.22;2.20;;;;;;;11.47;26.84;97300.41;6319618;28;20048;-68
2023/03/21 08:11:46;;;;;;;3.85;2.50;;;;;;;11.36;27.44;97289.66;6319330;28;20051;-68
2023/03/21 08:14:48;;;;;;;3.67;2.65;;;;;;;11.45;27.56;97297.00;6318171;28;20044;-67
2023/03/21 08:17:52;;;;;;;4.45;2.67;;;;;;;11.45;27.72;97304.91;6319696;28;20093;-68
2023/03/21 08:20:55;;;;;;;4.20;2.70;;;;;;;11.10;28.15;97300.00;6318776;28;20129;-68
2023/03/21 08:24:00;;;;;;;6.60;3.10;;;;;;;10.53;29.10;97299.84;6319324;28;20101;-68
2023/03/21 08:27:02;;;;;;;4.50;2.80;;;;;;;9.97;29.94;97306.53;6318960;28;20429;-68
2023/03/21 08:30:07;;;;;;;9.02;3.42;;;;;;;9.64;30.78;97291.66;6319530;28;20046;-68
2023/03/21 08:33:09;;;;;;;4.50;3.03;;;;;;;9.35;31.59;97286.19;6319002;28;20575;-68
2023/03/21 08:36:10;;;;;;;5.38;3.35;;;;;;;9.07;32.00;97288.59;6317361;28;20044;-68
2023/03/21 08:39:15;;;;;;;7.05;2.88;;;;;;;9.10;32.02;97288.44;6319609;28;20421;-68
2023/03/21 08:42:17;;;;;;;5.70;3.35;;;;;;;9.49;31.71;97285.47;6317736;28;20052;-69
2023/03/21 08:45:22;;;;;;;9.00;3.95;;;;;;;10.60;30.67;97282.78;6318955;28;20040;-68
2023/03/21 08:48:26;;;;;;;6.05;3.38;;;;;;;14.28;26.70;97282.38;6318615;28;20059;-69
2023/03/21 08:51:33;;;;;;;8.95;3.40;;;;;;;19.83;20.79;97284.44;6319245;28;20040;-70
2023/03/21 08:54:37;;;;;;;3.15;2.65;;;;;;;21.76;18.47;97291.94;6318978;28;20513;-68
2023/03/21 08:57:42;;;;;;;6.78;3.13;;;;;;;22.32;18.11;97285.16;6319078;28;20044;-68
2023/03/21 09:00:43;;;;;;;5.70;2.30;;;;;;;23.03;17.56;97282.97;6318846;28;20040;-68
2023/03/21 09:03:49;;;;;;;4.07;3.13;;;;;;;20.75;19.13;97259.41;6318819;28;20378;-68
2023/03/21 09:06:50;;;;;;;;;;;;;;;18.57;21.69;97266.78;6318719;28;20048;-69
2023/03/21 09:10:01;;;;;;;5.45;2.88;;;;;;;16.08;24.02;97266.81;6317686;28;19974;-69
2023/03/21 09:13:05;;;;;;;5.72;3.38;;;;;;;15.12;25.15;97255.84;6318918;28;20231;-68
2023/03/21 09:16:07;;;;;;;5.97;3.38;;;;;;;14.61;25.78;97259.69;6318446;28;20044;-67
2023/03/21 09:19:14;;;;;;;5.85;3.33;;;;;;;14.55;26.02;97252.19;6317950;28;20051;-67
2023/03/21 09:22:22;;;;;;;6.55;3.53;;;;;;;14.59;25.88;97253.66;6318593;28;20056;-68
2023/03/21 09:25:29;;;;;;;9.60;5.00;;;;;;;14.15;26.44;97249.81;6318307;28;20063;-68
2023/03/21 09:28:39;;;;;;;8.15;3.72;;;;;;;14.74;26.01;97256.94;6318288;28;20576;-69
2023/03/21 09:31:43;;;;;;;6.63;3.60;;;;;;;15.97;24.51;97253.56;6318609;28;20217;-68
2023/03/21 09:34:47;;;;;;;6.45;4.07;;;;;;;17.16;23.21;97253.44;6318611;28;20081;-68
2023/03/21 09:37:53;;;;;;;6.88;3.75;;;;;;;17.27;22.52;97252.53;6318652;28;20050;-68
2023/03/21 09:41:11;;;;;;;4.28;3.35;;;;;;;17.23;22.58;97253.75;6317001;28;20096;-69
2023/03/21 09:44:44;;;;;;;5.38;3.20;;;;;;;17.32;22.69;97252.13;6316960;28;20062;-68
2023/03/21 09:47:55;;;;;;;8.07;3.58;;;;;;;16.31;23.62;97251.66;6321149;28;20055;-67
2023/03/21 09:51:01;;;;;;;4.55;3.50;;;;;;;16.87;23.15;97253.28;6322847;28;20036;-67
2023/03/21 09:54:13;;;;;;;5.60;3.40;;;;;;;17.73;22.14;97254.69;6322447;28;20089;-68
2023/03/21 09:57:42;;;;;;;5.45;3.85;;;;;;;17.74;22.39;97247.53;6322771;28;20058;-68
2023/03/21 10:00:52;;;;;;;6.03;3.45;;;;;;;18.21;22.01;97245.19;6319288;28;20412;-68
2023/03/21 10:04:02;;;;;;;5.25;3.28;;;;;;;18.62;21.56;97248.56;6321543;28;20513;-68
2023/03/21 10:07:09;;;;;;;5.80;3.85;;;;;;;19.88;20.56;97247.47;6322674;28;20547;-68
2023/03/21 10:10:25;;;;;;;7.05;3.97;;;;;;;20.01;20.77;97255.94;6322484;28;20044;-68
2023/03/21 10:13:48;;;;;;;6.30;3.70;;;;;;;19.18;21.74;97250.50;6322401;28;20440;-69
2023/03/21 10:16:56;;;;;;;;;;;;;;;18.35;22.67;97247.44;6320674;28;20528;-68
2023/03/21 10:20:20;;;;;;;5.63;3.25;;;;;;;19.32;21.64;97241.19;6322313;28;19990;-68
2023/03/21 10:23:27;;;;;;;;;;;;;;;21.59;19.78;97247.31;6322497;28;20036;-68
2023/03/21 10:26:31;;;;;;;8.45;3.88;;;;;;;20.41;20.20;97244.03;6321284;28;19959;-68
2023/03/21 10:29:43;;;;;;;7.88;3.55;;;;;;;20.65;20.38;97239.94;6322170;28;20558;-68
2023/03/21 10:32:48;;;;;;;6.88;3.42;;;;;;;20.13;20.55;97236.06;6321997;28;20081;-68
2023/03/21 10:36:01;;;;;;;6.43;3.58;;;;;;;18.88;21.78;97226.69;6321814;28;20048;-68
2023/03/21 10:39:16;;;;;;;8.63;3.47;;;;;;;18.62;22.49;97224.56;6322007;28;20043;-69
2023/03/21 10:42:32;;;;;;;5.97;3.55;;;;;;;18.45;22.42;97225.28;6320377;28;20048;-68
2023/03/21 10:45:37;;;;;;;6.20;3.60;;;;;;;17.66;23.40;97210.09;6321800;28;20052;-68
2023/03/21 10:48:46;;;;;;;5.65;3.40;;;;;;;17.47;23.60;97211.75;6321825;28;20047;-69
2023/03/21 10:51:54;;;;;;;5.13;3.50;;;;;;;16.94;23.95;97206.56;6321653;28;20039;-69
2023/03/21 10:55:21;;;;;;;5.50;3.33;;;;;;;15.78;25.40;97217.03;6321676;28;20093;-68
2023/03/21 10:58:41;;;;;;;5.70;3.55;;;;;;;14.77;26.69;97216.97;6320130;28;20036;-69
2023/03/21 11:01:51;;;;;;;5.30;3.55;;;;;;;15.41;26.17;97219.94;6321363;28;20040;-68
2023/03/21 11:04:57;;;;;;;6.82;3.60;;;;;;;15.30;26.53;97212.00;6321291;28;20393;-69
2023/03/21 11:08:05;;;;;;;6.60;3.85;;;;;;;14.64;27.47;97203.84;6320298;28;20040;-69
2023/03/21 11:11:18;;;;;;;8.63;4.07;;;;;;;13.46;28.99;97194.81;6320931;28;20102;-68
2023/03/21 11:14:34;;;;;;;6.10;3.97;;;;;;;12.49;30.55;97190.09;6319754;28;20539;-68
2023/03/21 11:17:39;;;;;;;6.85;3.97;;;;;;;12.29;30.94;97186.16;6320962;28;20043;-68
2023/03/21 11:20:50;;;;;;;9.40;5.03;;;;;;;12.21;31.57;97183.19;6320729;28;20040;-67
2023/03/21 11:23:56;;;;;;;8.23;4.07;;;;;;;12.71;31.04;97186.84;6319634;28;20048;-67
2023/03/21 11:27:04;;;;;;;5.70;4.28;;;;;;;12.84;30.69;97175.44;6319149;28;20420;-67
2023/03/21 11:30:23;;;;;;;7.35;4.30;;;;;;;12.74;31.00;97175.22;6319303;28;20044;-68
2023/03/21 11:33:44;;;;;;;6.40;3.80;;;;;;;12.90;30.84;97186.41;6319339;28;20502;-67
2023/03/21 11:36:50;;;;;;;8.23;4.13;;;;;;;12.69;31.06;97178.19;6320509;28;20058;-68
2023/03/21 11:40:08;;;;;;;5.03;3.40;;;;;;;12.42;31.45;97186.16;6320345;28;20077;-67
2023/03/21 11:43:22;;;;;;;8.00;4.20;;;;;;;11.41;33.21;97187.47;6320096;28;20039;-67
2023/03/21 11:46:30;;;;;;;7.82;4.55;;;;;;;10.65;34.30;97177.25;6320276;28;20063;-68
2023/03/21 11:49:35;;;;;;;8.18;4.47;;;;;;;10.95;34.17;97174.53;6320279;28;20058;-68
2023/03/21 11:52:46;;;;;;;7.90;4.47;;;;;;;11.60;33.28;97174.78;6319868;28;20051;-68
2023/03/21 11:56:47;;;;;;;8.55;4.55;;;;;;;11.83;33.03;97177.75;6319665;28;20135;-67
2023/03/21 12:00:03;;;;;;;5.93;3.95;;;;;;;11.24;33.83;97170.94;6242211;28;20450;-67
2023/03/21 12:03:29;;;;;;;6.85;4.43;;;;;;;11.42;33.68;97174.19;6245220;28;20056;-68
2023/03/21 12:06:54;;;;;;;8.23;4.35;;;;;;;11.24;34.13;97160.41;6320327;28;20046;-69
2023/03/21 12:10:22;;;;;;;8.48;4.25;;;;;;;10.93;34.84;97172.00;6319753;28;20132;-68
2023/03/21 12:13:47;;;;;;;6.38;4.38;;;;;;;10.60;35.57;97160.88;6319605;28;20056;-68
2023/03/21 12:17:02;;;;;;;7.28;3.92;;;;;;;10.46;35.99;97159.09;6319617;28;20077;-69
2023/03/21 12:20:29;;;;;;;6.38;4.35;;;;;;;10.21;36.60;97152.59;6319823;28;20047;-68
2023/03/21 12:24:08;;;;;;;8.10;5.40;;;;;;;10.01;37.37;97155.56;6319373;28;20493;-68
2023/03/21 12:27:50;;;;;;;7.75;4.25;;;;;;;9.55;38.09;97142.44;6275358;28;20051;-66
2023/03/21 12:31:19;;;;;;;5.60;4.30;;;;;;;9.41;38.54;97136.16;6316799;28;20043;-68
2023/03/21 12:34:55;;;;;;;5.78;4.05;;;;;;;8.83;39.75;97143.75;6315491;28;20048;-68
2023/03/21 12:38:07;;;;;;;6.55;3.35;;;;;;;8.58;40.20;97142.44;6317867;28;20429;-68
2023/03/21 12:41:22;;;;;;;9.52;4.30;;;;;;;8.07;41.37;97155.50;6317985;28;20084;-69
2023/03/21 12:44:34;;;;;;;8.88;4.28;;;;;;;8.18;41.56;97135.75;6318429;28;20531;-68
2023/03/21 12:47:42;;;;;;;6.57;4.75;;;;;;;7.89;41.88;97145.91;6318828;28;20509;-68
2023/03/21 12:50:50;;;;;;;8.18;3.17;;;;;;;7.78;42.65;97145.59;6319085;28;20050;-67
2023/03/21 12:53:59;;;;;;;7.70;4.78;;;;;;;6.88;44.13;97145.50;6318890;28;20134;-67
2023/03/21 12:57:14;;;;;;;9.65;4.50;;;;;;;6.10;46.15;97135.91;6267954;28;20087;-68
2023/03/21 13:00:45;;;;;;;6.50;3.50;;;;;;;5.64;47.90;97133.44;6269082;28;20094;-67
2023/03/21 13:03:56;;;;;;;7.13;4.70;;;;;;;4.90;49.57;97131.13;6268923;28;20052;-68
2023/03/21 13:07:05;;;;;;;10.43;6.40;;;;;;;4.58;51.05;97136.69;6284551;28;20449;-68
2023/03/21 13:10:21;;;;;;;9.75;5.70;;;;;;;4.18;52.42;97123.34;6268517;28;20044;-68
2023/03/21 13:13:41;;;;;;;10.00;4.80;;;;;;;4.38;52.24;97122.63;6269118;28;20079;-68
2023/03/21 13:17:01;;;;;;;12.43;5.32;;;;;;;4.69;51.82;97135.38;6268822;28;20045;-68
2023/03/21 13:20:07;;;;;;;6.25;3.92;;;;;;;4.91;51.03;97130.22;6269403;28;20055;-67
2023/03/21 13:23:12;;;;;;;9.38;5.78;;;;;;;4.61;51.78;97131.34;6272335;28;20048;-66
2023/03/21 13:26:18;;;;;;;9.52;4.80;;;;;;;4.22;53.11;97121.50;6273368;28;20086;-68
2023/03/21 13:29:32;;;;;;;6.65;4.40;;;;;;;4.14;53.57;97119.16;6273578;28;20075;-67
2023/03/21 13:32:37;;;;;;;11.93;5.25;;;;;;;3.87;54.56;97118.34;6273303;28;20530;-68
2023/03/21 13:35:44;;;;;;;6.80;3.88;;;;;;;3.86;54.66;97121.84;6273217;28;20116;-68
2023/03/21 13:39:09;;;;;;;9.45;4.90;;;;;;;3.38;55.71;97114.78;6273690;28;20056;-69
2023/03/21 13:42:16;;;;;;;;;;;;;;;3.45;56.11;97111.06;6269076;28;20162;-68
2023/03/21 13:45:52;;;;;;;7.80;4.82;;;;;;;3.03;57.41;97108.97;6273339;28;19921;-67
2023/03/21 13:49:00;;;;;;;8.35;4.75;;;;;;;2.97;57.91;97111.72;6268909;28;20452;-68
2023/03/21 13:52:26;;;;;;;9.18;5.38;;;;;;;2.86;58.35;97113.78;6273050;28;20045;-67
2023/03/21 13:55:40;;;;;;;8.75;4.63;;;;;;;2.63;58.94;97107.56;6298394;28;20051;-69
2023/03/21 13:58:44;;;;;;;8.95;4.53;;;;;;;2.47;59.56;97106.31;6322709;28;20421;-66
2023/03/21 14:02:16;;;;;;;6.03;3.63;;;;;;;2.63;59.54;97111.88;6322686;28;20039;-67
2023/03/21 14:05:21;;;;;;;6.57;4.40;;;;;;;2.36;60.38;97105.78;6322689;28;20040;-68
2023/03/21 14:08:26;;;;;;;7.88;3.80;;;;;;;2.21;61.03;97115.69;6321871;28;20051;-68
2023/03/21 14:11:30;;;;;;;6.93;3.88;;;;;;;2.24;60.90;97105.22;6322147;28;20044;-69
2023/03/21 14:14:46;;;;;;;9.25;4.95;;;;;;;2.13;61.29;97107.25;6322544;28;20502;-69
2023/03/21 14:17:57;;;;;;;9.38;4.20;;;;;;;1.87;61.59;97100.19;6322368;28;20036;-69
2023/03/21 14:20:59;;;;;;;8.15;4.72;;;;;;;1.87;61.78;97109.69;6322355;28;20036;-68
2023/03/21 14:24:11;;;;;;;11.18;5.85;;;;;;;1.79;62.02;97112.50;6322296;28;20043;-69
2023/03/21 14:27:16;;;;;;;9.05;4.40;;;;;;;1.64;62.36;97111.13;6321966;28;20051;-69
2023/03/21 14:30:32;;;;;;;8.02;4.93;;;;;;;1.46;62.49;97117.66;6321867;28;20043;-68
2023/03/21 14:33:40;;;;;;;8.23;4.00;;;;;;;1.48;62.40;97115.03;6321823;28;20421;-69
2023/03/21 14:36:42;;;;;;;10.38;4.85;;;;;;;1.32;62.94;97112.81;6322069;28;20474;-68
2023/03/21 14:39:55;;;;;;;6.07;4.30;;;;;;;1.25;62.82;97113.84;6322477;28;20201;-69
2023/03/21 14:43:03;;;;;;;8.82;4.85;;;;;;;1.16;62.86;97114.09;6321533;28;20508;-69
2023/03/21 14:46:11;;;;;;;8.98;4.70;;;;;;;1.02;63.42;97117.00;6321732;28;20130;-68
2023/03/21 14:49:34;;;;;;;7.88;4.25;;;;;;;0.94;63.24;97125.84;6321657;28;20497;-68
2023/03/21 14:52:40;;;;;;;10.18;4.72;;;;;;;0.87;63.41;97114.75;6321456;28;20039;-68
2023/03/21 14:55:46;;;;;;;6.93;4.35;;;;;;;0.78;63.57;97115.78;6321329;28;20056;-67